createdAt,value
2023-01-30T00:01:27.310Z,96572.75
2023-01-30T00:03:54.591Z,96569.69
2023-01-30T00:06:21.881Z,96570.00
2023-01-30T00:08:48.895Z,96570.94
2023-01-30T00:11:18.122Z,96561.94
2023-01-30T00:13:45.600Z,96557.91
2023-01-30T00:16:13.097Z,96554.41
2023-01-30T00:18:41.600Z,96556.00
2023-01-30T00:21:11.351Z,96548.31
2023-01-30T00:23:39.381Z,96536.44
2023-01-30T00:26:07.621Z,96534.97
2023-01-30T00:28:34.695Z,96533.16
2023-01-30T00:31:01.780Z,96520.50
2023-01-30T00:33:29.187Z,96525.63
2023-01-30T00:35:57.387Z,96523.22
2023-01-30T00:38:25.206Z,96512.94
2023-01-30T00:40:52.311Z,96520.66
2023-01-30T00:43:40.095Z,96518.09
2023-01-30T00:46:33.751Z,96520.00
2023-01-30T00:49:00.786Z,96518.22
2023-01-30T00:51:28.533Z,96520.47
2023-01-30T00:53:55.642Z,96522.66
2023-01-30T00:56:22.546Z,96519.13
2023-01-30T00:58:49.670Z,96526.03
2023-01-30T01:01:16.721Z,96522.66
2023-01-30T01:03:43.811Z,96511.75
2023-01-30T01:06:10.861Z,96516.09
2023-01-30T01:08:37.823Z,96513.00
2023-01-30T01:11:04.960Z,96512.34
2023-01-30T01:13:31.951Z,96518.28
2023-01-30T01:15:59.114Z,96505.91
2023-01-30T01:18:26.309Z,96508.16
2023-01-30T01:20:53.336Z,96505.56
2023-01-30T01:23:20.350Z,96506.00
2023-01-30T01:25:50.144Z,96500.06
2023-01-30T01:28:21.823Z,96508.56
2023-01-30T01:30:48.962Z,96497.50
2023-01-30T01:33:15.923Z,96497.69
2023-01-30T01:35:42.986Z,96492.03
2023-01-30T01:38:10.731Z,96492.84
2023-01-30T01:40:57.800Z,96492.84
2023-01-30T01:43:25.899Z,96493.38
2023-01-30T01:45:55.188Z,96491.09
2023-01-30T01:48:31.131Z,96484.19
2023-01-30T01:51:09.254Z,96475.84
2023-01-30T01:53:49.845Z,96473.59
2023-01-30T01:56:19.647Z,96472.59
2023-01-30T01:58:53.022Z,96477.00
2023-01-30T02:01:20.201Z,96475.69
2023-01-30T02:03:50.991Z,96466.41
2023-01-30T02:06:19.152Z,96467.38
2023-01-30T02:08:47.332Z,96465.75
2023-01-30T02:11:23.232Z,96458.88
2023-01-30T02:13:51.104Z,96452.13
2023-01-30T02:16:21.652Z,96448.75
2023-01-30T02:18:49.334Z,96452.41
2023-01-30T02:21:51.193Z,96446.94
2023-01-30T02:24:43.209Z,96448.84
2023-01-30T02:27:25.587Z,96449.81
2023-01-30T02:30:22.388Z,96448.22
2023-01-30T02:33:18.431Z,96442.28
2023-01-30T02:36:11.699Z,96445.66
2023-01-30T02:38:45.501Z,96449.03
2023-01-30T02:41:30.961Z,96437.59
2023-01-30T02:44:16.508Z,96425.72
2023-01-30T02:47:04.921Z,96432.13
2023-01-30T02:49:39.290Z,96433.06
2023-01-30T02:52:11.879Z,96437.69
2023-01-30T02:54:38.942Z,96448.22
2023-01-30T02:57:20.421Z,96440.19
2023-01-30T02:59:53.629Z,96441.22
2023-01-30T03:02:23.618Z,96435.66
2023-01-30T03:05:04.940Z,96436.75
2023-01-30T03:07:55.006Z,96441.59
2023-01-30T03:11:02.424Z,96433.69
2023-01-30T03:13:48.440Z,96437.22
2023-01-30T03:16:32.246Z,96432.38
2023-01-30T03:19:04.690Z,96426.97
2023-01-30T03:21:32.053Z,96427.78
2023-01-30T03:23:59.341Z,96423.88
2023-01-30T03:26:31.147Z,96418.47
2023-01-30T03:28:58.672Z,96425.34
2023-01-30T03:31:25.717Z,96425.34
2023-01-30T03:33:53.032Z,96422.34
2023-01-30T03:36:20.089Z,96422.06
2023-01-30T03:38:47.264Z,96419.84
2023-01-30T03:41:14.389Z,96410.88
2023-01-30T03:43:41.632Z,96406.00
2023-01-30T03:46:08.661Z,96405.00
2023-01-30T03:48:35.674Z,96405.34
2023-01-30T03:51:02.725Z,96399.88
2023-01-30T03:53:29.768Z,96398.81
2023-01-30T03:55:56.904Z,96396.56
2023-01-30T03:58:29.015Z,96387.75
2023-01-30T04:00:57.680Z,96385.69
2023-01-30T04:03:25.965Z,96387.44
2023-01-30T04:05:58.454Z,96380.56
2023-01-30T04:08:26.072Z,96370.81
2023-01-30T04:10:53.307Z,96374.47
2023-01-30T04:13:21.099Z,96381.06
2023-01-30T04:15:48.212Z,96376.75
2023-01-30T04:18:35.721Z,96375.94
2023-01-30T04:21:09.883Z,96368.38
2023-01-30T04:23:39.425Z,96354.94
2023-01-30T04:26:08.011Z,96354.78
2023-01-30T04:28:38.130Z,96359.25
2023-01-30T04:31:05.352Z,96343.88
2023-01-30T04:34:04.860Z,96350.13
2023-01-30T04:36:31.950Z,96344.03
2023-01-30T04:38:59.263Z,96341.75
2023-01-30T04:41:28.940Z,96340.75
2023-01-30T04:43:59.890Z,96335.59
2023-01-30T04:46:52.879Z,96330.94
2023-01-30T04:49:20.399Z,96325.31
2023-01-30T04:51:49.055Z,96317.25
2023-01-30T04:54:16.052Z,96325.41
2023-01-30T04:56:43.053Z,96318.00
2023-01-30T04:59:10.342Z,96316.66
2023-01-30T05:01:42.332Z,96322.72
2023-01-30T05:04:09.744Z,96310.59
2023-01-30T05:06:37.309Z,96309.94
2023-01-30T05:09:04.671Z,96305.00
2023-01-30T05:11:33.167Z,96305.00
2023-01-30T05:14:00.583Z,96303.88
2023-01-30T05:16:28.226Z,96302.13
2023-01-30T05:18:55.749Z,96302.28
2023-01-30T05:21:28.229Z,96303.25
2023-01-30T05:23:56.878Z,96295.03
2023-01-30T05:26:24.914Z,96291.03
2023-01-30T05:28:54.027Z,96290.06
2023-01-30T05:31:21.536Z,96286.06
2023-01-30T05:33:50.420Z,96282.19
2023-01-30T05:36:19.860Z,96272.56
2023-01-30T05:38:47.222Z,96279.56
2023-01-30T05:41:16.594Z,96278.19
2023-01-30T05:43:44.015Z,96267.44
2023-01-30T05:46:13.066Z,96275.09
2023-01-30T05:48:40.381Z,96267.28
2023-01-30T05:51:07.778Z,96259.00
2023-01-30T05:53:35.458Z,96257.13
2023-01-30T05:56:05.674Z,96258.06
2023-01-30T05:58:33.538Z,96259.53
2023-01-30T06:01:06.462Z,96255.19
2023-01-30T06:03:33.780Z,96255.84
2023-01-30T06:06:03.348Z,96263.25
2023-01-30T06:08:30.741Z,96257.59
2023-01-30T06:11:06.143Z,96262.13
2023-01-30T06:13:33.379Z,96262.78
2023-01-30T06:16:00.798Z,96256.66
2023-01-30T06:18:28.187Z,96246.06
2023-01-30T06:20:55.554Z,96246.75
2023-01-30T06:23:26.019Z,96253.00
2023-01-30T06:25:54.221Z,96256.84
2023-01-30T06:28:23.178Z,96251.94
2023-01-30T06:30:50.940Z,96247.19
2023-01-30T06:33:18.826Z,96243.66
2023-01-30T06:35:49.259Z,96250.91
2023-01-30T06:38:17.626Z,96249.63
2023-01-30T06:40:46.450Z,96246.13
2023-01-30T06:43:14.098Z,96256.34
2023-01-30T06:45:41.604Z,96251.13
2023-01-30T06:48:09.704Z,96243.78
2023-01-30T06:50:36.714Z,96250.22
2023-01-30T06:53:06.468Z,96249.75
2023-01-30T06:55:38.747Z,96250.09
2023-01-30T06:58:14.826Z,96251.22
2023-01-30T07:00:43.359Z,96250.47
2023-01-30T07:03:15.556Z,96261.19
2023-01-30T07:05:44.303Z,96249.19
2023-01-30T07:08:12.555Z,96265.38
2023-01-30T07:10:40.987Z,96255.78
2023-01-30T07:13:08.261Z,96243.91
2023-01-30T07:15:35.581Z,96241.03
2023-01-30T07:18:02.949Z,96238.97
2023-01-30T07:20:31.575Z,96237.06
2023-01-30T07:22:58.987Z,96240.13
2023-01-30T07:25:28.369Z,96227.63
2023-01-30T07:28:00.848Z,96233.22
2023-01-30T07:30:30.522Z,96219.31
2023-01-30T07:32:59.029Z,96214.81
2023-01-30T07:35:28.622Z,96209.22
2023-01-30T07:37:55.937Z,96199.16
2023-01-30T07:40:23.780Z,96202.66
2023-01-30T07:43:02.784Z,96188.41
2023-01-30T07:45:44.644Z,96187.47
2023-01-30T07:48:14.141Z,96181.25
2023-01-30T07:50:41.659Z,96182.84
2023-01-30T07:53:11.951Z,96180.13
2023-01-30T07:55:39.380Z,96171.16
2023-01-30T07:58:06.820Z,96159.31
2023-01-30T08:00:34.700Z,96164.41
2023-01-30T08:03:01.942Z,96160.25
2023-01-30T08:05:29.304Z,96165.41
2023-01-30T08:07:57.063Z,96167.47
2023-01-30T08:10:24.790Z,96156.06
2023-01-30T08:12:52.102Z,96164.25
2023-01-30T08:15:21.226Z,96166.16
2023-01-30T08:17:56.860Z,96168.41
2023-01-30T08:20:25.624Z,96169.34
2023-01-30T08:22:53.708Z,96164.53
2023-01-30T08:25:23.455Z,96159.22
2023-01-30T08:27:51.595Z,96155.84
2023-01-30T08:30:20.582Z,96152.78
2023-01-30T08:32:48.493Z,96150.19
2023-01-30T08:35:15.991Z,96147.91
2023-01-30T08:37:43.823Z,96144.50
2023-01-30T08:40:11.987Z,96142.13
2023-01-30T08:42:39.179Z,96135.63
2023-01-30T08:45:07.030Z,96146.16
2023-01-30T08:47:35.856Z,96138.03
2023-01-30T08:50:04.017Z,96148.25
2023-01-30T08:52:33.506Z,96138.81
2023-01-30T08:55:00.772Z,96136.47
2023-01-30T08:57:28.020Z,96131.09
2023-01-30T08:59:55.380Z,96122.00
2023-01-30T09:02:22.639Z,96127.06
2023-01-30T09:04:49.902Z,96121.75
2023-01-30T09:07:17.099Z,96117.78
2023-01-30T09:09:44.305Z,96112.06
2023-01-30T09:12:11.539Z,96109.91
2023-01-30T09:14:38.789Z,96112.75
2023-01-30T09:17:06.419Z,96106.91
2023-01-30T09:19:36.220Z,96114.81
2023-01-30T09:22:03.626Z,96099.88
2023-01-30T09:24:31.469Z,96105.91
2023-01-30T09:26:59.234Z,96115.53
2023-01-30T09:29:27.558Z,96096.47
2023-01-30T09:31:59.339Z,96088.06
2023-01-30T09:34:29.097Z,96076.84
2023-01-30T09:37:04.987Z,96087.25
2023-01-30T09:39:32.522Z,96083.53
2023-01-30T09:42:35.086Z,96080.50
2023-01-30T09:45:24.659Z,96071.13
2023-01-30T09:48:13.459Z,96070.88
2023-01-30T09:51:13.218Z,96055.34
2023-01-30T09:54:09.269Z,96054.34
2023-01-30T09:56:36.502Z,96051.56
2023-01-30T09:59:05.679Z,96055.97
2023-01-30T10:02:24.549Z,96062.66
2023-01-30T10:05:01.252Z,96063.16
2023-01-30T10:07:44.606Z,96062.25
2023-01-30T10:10:11.980Z,96057.72
2023-01-30T10:12:54.817Z,96052.84
2023-01-30T10:15:52.586Z,96037.91
2023-01-30T10:18:38.217Z,96031.19
2023-01-30T10:21:08.459Z,96027.38
2023-01-30T10:24:15.064Z,96035.41
2023-01-30T10:26:43.118Z,96037.19
2023-01-30T10:29:20.240Z,96027.06
2023-01-30T10:32:10.341Z,96017.53
2023-01-30T10:34:49.385Z,96013.41
2023-01-30T10:37:30.318Z,96024.16
2023-01-30T10:40:15.081Z,96017.22
2023-01-30T10:42:55.384Z,96017.22
2023-01-30T10:45:34.693Z,96009.03
2023-01-30T10:48:06.098Z,96007.84
2023-01-30T10:50:57.418Z,95999.41
2023-01-30T10:53:47.705Z,95991.72
2023-01-30T10:56:27.017Z,95983.53
2023-01-30T10:59:29.417Z,95974.91
2023-01-30T11:02:26.409Z,95983.63
2023-01-30T11:05:04.057Z,95962.81
2023-01-30T11:07:33.539Z,95951.41
2023-01-30T11:10:01.318Z,95950.72
2023-01-30T11:12:28.591Z,95936.59
2023-01-30T11:15:01.243Z,95929.94
2023-01-30T11:17:36.192Z,95921.09
2023-01-30T11:20:13.764Z,95926.22
2023-01-30T11:23:04.745Z,95920.81
2023-01-30T11:25:32.466Z,95915.16
2023-01-30T11:28:05.743Z,95909.03
2023-01-30T11:30:36.869Z,95895.75
2023-01-30T11:33:17.104Z,95889.81
2023-01-30T11:36:05.524Z,95888.22
2023-01-30T11:38:35.577Z,95886.44
2023-01-30T11:41:07.978Z,95882.50
2023-01-30T11:43:37.577Z,95883.75
2023-01-30T11:46:06.820Z,95881.75
2023-01-30T11:49:03.327Z,95878.28
2023-01-30T11:51:28.617Z,95866.06
2023-01-30T11:54:02.625Z,95867.13
2023-01-30T11:56:39.547Z,95856.50
2023-01-30T11:59:28.628Z,95856.63
2023-01-30T12:13:39.738Z,95831.31
2023-01-30T12:16:37.925Z,95827.44
2023-01-30T12:19:16.497Z,95824.34
2023-01-30T12:22:18.657Z,95829.66
2023-01-30T12:25:08.657Z,95823.09
2023-01-30T12:28:02.466Z,95818.00
2023-01-30T12:30:49.577Z,95813.53
2023-01-30T12:35:50.539Z,95790.28
2023-01-30T12:38:38.501Z,95789.94
2023-01-30T12:41:22.178Z,95786.44
2023-01-30T12:44:10.577Z,95779.84
2023-01-30T12:46:56.343Z,95781.09
2023-01-30T12:50:06.781Z,95767.00
2023-01-30T12:52:44.657Z,95774.59
2023-01-30T12:55:46.465Z,95767.75
2023-01-30T12:58:48.698Z,95753.91
2023-01-30T13:01:34.708Z,95740.69
2023-01-30T13:04:04.539Z,95733.81
2023-01-30T13:06:53.103Z,95734.28
2023-01-30T13:09:26.305Z,95731.25
2023-01-30T13:12:06.382Z,95724.97
2023-01-30T13:14:46.378Z,95725.03
2023-01-30T13:17:31.586Z,95714.28
2023-01-30T13:20:06.019Z,95703.81
2023-01-30T13:22:58.139Z,95698.34
2023-01-30T13:25:33.101Z,95691.03
2023-01-30T13:28:06.579Z,95696.41
2023-01-30T13:30:36.146Z,95692.63
2023-01-30T13:33:31.823Z,95686.31
2023-01-30T13:36:27.666Z,95691.13
2023-01-30T13:39:07.259Z,95689.38
2023-01-30T13:41:40.177Z,95705.44
2023-01-30T13:44:19.142Z,95683.59
2023-01-30T13:46:47.807Z,95701.69
2023-01-30T13:49:29.829Z,95689.47
2023-01-30T13:52:19.107Z,95674.97
2023-01-30T13:55:14.367Z,95681.31
2023-01-30T13:58:10.738Z,95683.09
2023-01-30T14:00:38.126Z,95683.13
2023-01-30T14:03:08.677Z,95682.84
2023-01-30T14:05:54.822Z,95677.03
2023-01-30T14:08:39.217Z,95674.81
2023-01-30T14:11:34.698Z,95675.84
2023-01-30T14:14:03.818Z,95684.47
2023-01-30T14:16:46.345Z,95681.47
2023-01-30T14:19:39.702Z,95686.56
2023-01-30T14:22:48.848Z,95687.38
2023-01-30T14:25:28.490Z,95685.41
2023-01-30T14:28:02.193Z,95681.94
2023-01-30T14:30:32.242Z,95690.44
2023-01-30T14:33:01.381Z,95692.28
2023-01-30T14:35:29.778Z,95696.72
2023-01-30T14:38:19.458Z,95707.00
2023-01-30T14:41:38.178Z,95710.72
2023-01-30T14:44:05.509Z,95711.25
2023-01-30T14:46:32.952Z,95712.03
2023-01-30T14:49:21.860Z,95715.13
2023-01-30T14:51:50.018Z,95711.66
2023-01-30T14:54:17.328Z,95709.53
2023-01-30T14:56:46.832Z,95711.16
2023-01-30T14:59:17.115Z,95709.81
2023-01-30T15:02:14.805Z,95714.88
2023-01-30T15:05:07.246Z,95713.25
2023-01-30T15:07:45.957Z,95716.19
2023-01-30T15:10:50.671Z,95721.81
2023-01-30T15:13:42.107Z,95715.00
2023-01-30T15:16:11.934Z,95710.84
2023-01-30T15:19:15.139Z,95731.81
2023-01-30T15:22:13.227Z,95729.88
2023-01-30T15:24:48.977Z,95737.56
2023-01-30T15:27:35.897Z,95744.56
2023-01-30T15:30:06.469Z,95737.00
2023-01-30T15:32:34.151Z,95750.00
2023-01-30T15:35:16.750Z,95742.94
2023-01-30T15:37:46.857Z,95740.44
2023-01-30T15:40:17.236Z,95747.94
2023-01-30T15:42:52.019Z,95760.34
2023-01-30T15:45:30.488Z,95761.28
2023-01-30T15:48:40.587Z,95770.44
2023-01-30T15:51:17.708Z,95758.31
2023-01-30T15:53:47.357Z,95770.66
2023-01-30T15:56:27.978Z,95770.19
2023-01-30T15:58:59.718Z,95774.44
2023-01-30T16:01:27.258Z,95781.88
2023-01-30T16:03:55.299Z,95782.97
2023-01-30T16:06:34.260Z,95799.63
2023-01-30T16:09:19.864Z,95794.50
2023-01-30T16:11:47.499Z,95795.53
2023-01-30T16:14:17.059Z,95811.59
2023-01-30T16:16:56.214Z,95799.69
2023-01-30T16:19:33.138Z,95834.50
2023-01-30T16:22:06.920Z,95824.97
2023-01-30T16:24:37.833Z,95843.56
2023-01-30T16:27:16.579Z,95839.00
2023-01-30T16:29:51.462Z,95827.47
2023-01-30T16:32:33.298Z,95813.56
2023-01-30T16:35:27.460Z,95858.94
2023-01-30T16:37:57.579Z,95843.50
2023-01-30T16:40:31.179Z,95835.09
2023-01-30T16:43:18.660Z,95838.69
2023-01-30T16:45:55.229Z,95837.31
2023-01-30T16:48:35.458Z,95849.31
2023-01-30T16:51:02.630Z,95847.66
2023-01-30T16:53:32.033Z,95831.66
2023-01-30T16:55:59.217Z,95836.47
2023-01-30T16:58:35.587Z,95836.53
2023-01-30T17:01:06.885Z,95830.63
2023-01-30T17:03:44.038Z,95816.53
2023-01-30T17:06:23.317Z,95819.53
2023-01-30T17:08:55.491Z,95816.06
2023-01-30T17:11:34.782Z,95788.88
2023-01-30T17:14:20.347Z,95780.31
2023-01-30T17:17:04.303Z,95787.94
2023-01-30T17:19:31.549Z,95788.53
2023-01-30T17:22:01.057Z,95785.03
2023-01-30T17:24:29.306Z,95803.53
2023-01-30T17:27:02.724Z,95808.31
2023-01-30T17:29:42.782Z,95791.16
2023-01-30T17:32:13.537Z,95830.19
2023-01-30T17:34:41.656Z,95827.25
2023-01-30T17:37:15.961Z,95827.09
2023-01-30T17:39:43.389Z,95858.41
2023-01-30T17:42:11.899Z,95860.22
2023-01-30T17:44:39.338Z,95838.22
2023-01-30T17:47:06.906Z,95856.38
2023-01-30T17:49:34.145Z,95858.75
2023-01-30T17:52:01.420Z,95863.00
2023-01-30T17:54:30.423Z,95879.94
2023-01-30T17:57:02.628Z,95896.59
2023-01-30T17:59:29.718Z,95902.88
2023-01-30T18:01:57.058Z,95923.19
2023-01-30T18:04:24.358Z,95913.09
2023-01-30T18:06:56.237Z,95936.31
2023-01-30T18:09:24.942Z,95942.19
2023-01-30T18:11:52.302Z,95941.16
2023-01-30T18:14:20.160Z,95940.41
2023-01-30T18:16:47.958Z,95933.97
2023-01-30T18:19:24.333Z,95951.97
2023-01-30T18:21:51.782Z,95946.22
2023-01-30T18:24:19.379Z,95952.56
2023-01-30T18:26:47.434Z,95961.47
2023-01-30T18:29:14.703Z,95973.75
2023-01-30T18:31:42.089Z,95983.81
2023-01-30T18:34:11.408Z,95993.00
2023-01-30T18:36:39.192Z,95997.25
2023-01-30T18:39:07.591Z,96001.63
2023-01-30T18:41:35.707Z,95986.69
2023-01-30T18:44:04.120Z,96038.53
2023-01-30T18:46:32.170Z,96026.97
2023-01-30T18:49:00.152Z,96038.94
2023-01-30T18:51:29.667Z,96052.50
2023-01-30T18:53:57.830Z,96051.91
2023-01-30T18:56:29.867Z,96061.25
2023-01-30T18:58:58.540Z,96049.66
2023-01-30T19:01:28.267Z,96052.66
2023-01-30T19:04:01.901Z,96037.09
2023-01-30T19:06:30.233Z,96040.09
2023-01-30T19:08:58.314Z,96044.84
2023-01-30T19:11:44.500Z,96055.78
2023-01-30T19:14:12.032Z,96040.25
2023-01-30T19:16:39.675Z,96033.09
2023-01-30T19:19:09.263Z,96010.94
2023-01-30T19:21:37.314Z,96026.88
2023-01-30T19:24:07.385Z,96024.09
2023-01-30T19:26:35.428Z,96025.63
2023-01-30T19:29:02.988Z,96013.69
2023-01-30T19:31:30.486Z,95985.22
2023-01-30T19:34:01.574Z,95973.50
2023-01-30T19:36:32.200Z,95975.50
2023-01-30T19:39:00.515Z,95979.06
2023-01-30T19:41:28.960Z,95988.06
2023-01-30T19:43:58.384Z,96002.78
2023-01-30T19:46:26.880Z,96000.38
2023-01-30T19:48:54.186Z,96005.94
2023-01-30T19:51:24.102Z,96021.53
2023-01-30T19:54:02.658Z,96031.25
2023-01-30T19:56:30.585Z,96039.34
2023-01-30T19:59:00.531Z,96043.38
2023-01-30T20:01:31.417Z,96051.91
2023-01-30T20:03:59.421Z,96051.78
2023-01-30T20:06:29.702Z,96059.50
2023-01-30T20:09:02.710Z,96045.59
2023-01-30T20:11:30.657Z,96051.56
2023-01-30T20:13:59.028Z,96044.00
2023-01-30T20:16:27.902Z,96062.50
2023-01-30T20:19:03.836Z,96061.78
2023-01-30T20:21:31.662Z,96057.75
2023-01-30T20:24:00.505Z,96076.19
2023-01-30T20:26:31.011Z,96076.41
2023-01-30T20:28:58.824Z,96093.97
2023-01-30T20:31:28.048Z,96085.34
2023-01-30T20:33:57.986Z,96082.94
2023-01-30T20:36:27.421Z,96092.16
2023-01-30T20:38:56.045Z,96082.63
2023-01-30T20:41:25.380Z,96083.19
2023-01-30T20:43:56.874Z,96088.38
2023-01-30T20:46:27.722Z,96087.38
2023-01-30T20:48:57.071Z,96092.03
2023-01-30T20:51:29.817Z,96075.44
2023-01-30T20:54:02.935Z,96065.72
2023-01-30T20:56:35.727Z,96041.81
2023-01-30T20:59:05.102Z,96036.88
2023-01-30T21:01:33.478Z,96042.88
2023-01-30T21:04:08.943Z,96045.81
2023-01-30T21:06:42.820Z,96027.28
2023-01-30T21:09:21.794Z,96029.94
2023-01-30T21:11:50.219Z,96033.34
2023-01-30T21:14:17.496Z,96039.69
2023-01-30T21:16:45.135Z,96059.22
2023-01-30T21:19:16.616Z,96054.59
2023-01-30T21:21:54.384Z,96038.50
2023-01-30T21:24:28.507Z,96065.38
2023-01-30T21:26:56.747Z,96078.50
2023-01-30T21:29:25.039Z,96073.94
2023-01-30T21:31:52.771Z,96088.19
2023-01-30T21:34:20.263Z,96099.69
2023-01-30T21:37:07.546Z,96094.19
2023-01-30T21:39:53.544Z,96088.22
2023-01-30T21:42:39.325Z,96105.53
2023-01-30T21:45:07.223Z,96103.38
2023-01-30T21:47:34.491Z,96089.59
2023-01-30T21:50:01.839Z,96086.59
2023-01-30T21:52:31.191Z,96100.72
2023-01-30T21:54:59.221Z,96097.34
2023-01-30T21:57:26.490Z,96108.28
2023-01-30T21:59:53.741Z,96122.22
2023-01-30T22:02:20.995Z,96120.22
2023-01-30T22:04:48.381Z,96132.72
2023-01-30T22:07:15.565Z,96124.22
2023-01-30T22:09:42.788Z,96128.56
2023-01-30T22:12:11.226Z,96132.00
2023-01-30T22:14:38.803Z,96128.00
2023-01-30T22:17:06.381Z,96121.69
2023-01-30T22:19:35.945Z,96123.63
2023-01-30T22:22:04.157Z,96125.25
2023-01-30T22:24:31.779Z,96127.84
2023-01-30T22:26:59.204Z,96126.81
2023-01-30T22:29:26.501Z,96109.66
2023-01-30T22:31:53.860Z,96119.88
2023-01-30T22:34:21.618Z,96119.38
2023-01-30T22:36:48.899Z,96126.09
2023-01-30T22:39:16.180Z,96122.94
2023-01-30T22:41:43.461Z,96126.72
2023-01-30T22:44:11.166Z,96122.44
2023-01-30T22:46:41.228Z,96123.34
2023-01-30T22:49:09.945Z,96122.72
2023-01-30T22:51:40.541Z,96119.78
2023-01-30T22:54:12.102Z,96127.00
2023-01-30T22:56:41.944Z,96129.25
2023-01-30T22:59:09.720Z,96119.13
2023-01-30T23:01:45.823Z,96126.28
2023-01-30T23:04:22.059Z,96138.84
2023-01-30T23:06:51.623Z,96124.84
2023-01-30T23:09:23.284Z,96119.84
2023-01-30T23:12:15.386Z,96119.44
2023-01-30T23:14:43.177Z,96129.88
2023-01-30T23:17:29.469Z,96128.78
2023-01-30T23:19:57.138Z,96115.09
2023-01-30T23:22:24.356Z,96117.31
2023-01-30T23:24:51.702Z,96112.56
2023-01-30T23:27:19.764Z,96114.94
2023-01-30T23:29:47.120Z,96117.31
2023-01-30T23:32:15.345Z,96100.13
2023-01-30T23:34:42.659Z,96116.97
2023-01-30T23:37:09.978Z,96127.91
2023-01-30T23:39:37.659Z,96109.44
2023-01-30T23:42:04.910Z,96115.97
2023-01-30T23:44:32.100Z,96116.47
2023-01-30T23:46:59.304Z,96122.84
2023-01-30T23:49:26.630Z,96104.91
2023-01-30T23:51:53.825Z,96103.84
2023-01-30T23:54:21.666Z,96099.88
2023-01-30T23:56:48.860Z,96103.38
2023-01-30T23:59:16.106Z,96119.50
